To NAV CANADA Home Page Login to a new session Search on AWWS site Disclaimer Vers la page française équivalente Tips FAQ What's new on the site To the Forecasts and Observations / NOTAM section To "File a Flight Plan" website Publications and other links Update of the User's profile FIC Telephone Numbers My Weather Data Folder Route Weather Data Regional Weather Data Local Weather Data To the Forecasts and Observations / NOTAM section
Request Generated 10/19/2018 at 15:34:16 UTC . Weather information available at that time is displayed.

METAR/TAF

DAWSON CITY/YT    

METAR CYDA 191500Z 00000KT 20SM FEW062 OVC090 M03/M05 A2969 RMK SC2AC6 PRESFR SLP081=
METAR CYDA 191400Z 11003KT 20SM SCT062 OVC140 M04/M06 A2976 RMK SC4AC4 CLIMAT 3.9/-7.0/0.0 FROIN SLP106=
LWIS CYDA 191300Z AUTO 08005KT M04/M05 A2982=

*** REMARK        : Forecast period has ended; this was the last TAF issued
*** REMARQUE : La période de prévision est échue; ceci était le dernier TAF qui a été émis
TAF CYDA 181738Z 1818/1823 VRB03KT P6SM FEW090 BKN200
RMK NXT FCST WILL BE ISSUED AT 191545Z=
Your time UTC time
Weather data provided by Environment Canada and NAV CANADA